Main page
METAR-TAF:

METAR-TAF

Airports :

Deauville – Normandie Airport

Deauville, France

latitude: 49-21-55N, longitude: 000-09-16E, elevation: 146 m

Current weather observation

The report was made 28 minutes ago, at 12:30 UTC
Wind 6 kt from the Northwest, varying between West/Southwest and North/Northeast
Temperature 29°C
Humidity 40%
Pressure 1017 hPa
Visibility 10 km or more
no clouds below 1500 m and no cumulonimbus

METAR: LFRG 061230Z AUTO 31006KT 240V020 CAVOK 29/14 Q1017 NOSIG

Time: 14:58 (12:58 UTC)

Forecast

The report was made 1 hour and 58 minutes ago, at 11:00 UTC
Forecast valid from 06 at 12 UTC to 06 at 21 UTC
Wind 6 kt from the North/Northwest
Visibility 10 km or more
no clouds below 1500 m and no cumulonimbus

TAF: LFRG 061100Z 0612/0621 34006KT CAVOK

Weather observations and forecasts of more than 4000 airports (METAR and TAF reports).

The available stations are represented by yellow and red dots on the map.

Hover mouse over dot to see the name of the station.

Then click to see weather observations and forecasts.

To change the map : click on the green buttons with a black cross to zoom in, on the green button with a dash to zoom out, or on the green arrows for adjacent maps.


METAR-TAF: